sensor_id;sensor_type;location;lat;lon;timestamp;P1;durP1;ratioP1;P2;durP2;ratioP2
13244;SDS011;6689;53.400;12.486;2023-01-04T00:01:00;15.15;;;9.75;;
13244;SDS011;6689;53.400;12.486;2023-01-04T00:03:27;14.68;;;9.48;;
13244;SDS011;6689;53.400;12.486;2023-01-04T00:05:56;15.80;;;9.57;;
13244;SDS011;6689;53.400;12.486;2023-01-04T00:08:24;16.85;;;9.80;;
13244;SDS011;6689;53.400;12.486;2023-01-04T00:10:51;16.58;;;9.88;;
13244;SDS011;6689;53.400;12.486;2023-01-04T00:13:19;18.42;;;9.77;;
13244;SDS011;6689;53.400;12.486;2023-01-04T00:15:46;15.63;;;9.90;;
13244;SDS011;6689;53.400;12.486;2023-01-04T00:18:14;15.20;;;9.35;;
13244;SDS011;6689;53.400;12.486;2023-01-04T00:20:42;13.90;;;8.88;;
13244;SDS011;6689;53.400;12.486;2023-01-04T00:23:09;14.38;;;9.05;;
13244;SDS011;6689;53.400;12.486;2023-01-04T00:25:37;11.50;;;8.82;;
13244;SDS011;6689;53.400;12.486;2023-01-04T00:28:04;16.38;;;8.70;;
13244;SDS011;6689;53.400;12.486;2023-01-04T00:30:31;14.75;;;8.90;;
13244;SDS011;6689;53.400;12.486;2023-01-04T00:32:58;16.48;;;8.85;;
13244;SDS011;6689;53.400;12.486;2023-01-04T00:35:27;12.20;;;8.85;;
13244;SDS011;6689;53.400;12.486;2023-01-04T00:37:54;12.25;;;8.05;;
13244;SDS011;6689;53.400;12.486;2023-01-04T00:40:22;13.00;;;8.82;;
13244;SDS011;6689;53.400;12.486;2023-01-04T00:42:49;12.20;;;8.20;;
13244;SDS011;6689;53.400;12.486;2023-01-04T00:45:16;14.45;;;8.65;;
13244;SDS011;6689;53.400;12.486;2023-01-04T00:47:44;13.48;;;8.80;;
13244;SDS011;6689;53.400;12.486;2023-01-04T00:50:11;15.60;;;8.70;;
13244;SDS011;6689;53.400;12.486;2023-01-04T00:52:40;11.82;;;8.10;;
13244;SDS011;6689;53.400;12.486;2023-01-04T00:55:08;14.13;;;9.05;;
13244;SDS011;6689;53.400;12.486;2023-01-04T00:57:36;13.27;;;8.43;;
13244;SDS011;6689;53.400;12.486;2023-01-04T01:00:03;15.05;;;8.75;;
13244;SDS011;6689;53.400;12.486;2023-01-04T01:02:31;14.27;;;9.15;;
13244;SDS011;6689;53.400;12.486;2023-01-04T01:04:59;12.32;;;7.88;;
13244;SDS011;6689;53.400;12.486;2023-01-04T01:07:26;13.50;;;8.23;;
13244;SDS011;6689;53.400;12.486;2023-01-04T01:09:55;12.00;;;7.47;;
13244;SDS011;6689;53.400;12.486;2023-01-04T01:12:22;13.57;;;7.72;;
13244;SDS011;6689;53.400;12.486;2023-01-04T01:14:49;12.50;;;8.05;;
13244;SDS011;6689;53.400;12.486;2023-01-04T01:17:17;11.77;;;7.88;;
13244;SDS011;6689;53.400;12.486;2023-01-04T01:19:44;17.85;;;8.25;;
13244;SDS011;6689;53.400;12.486;2023-01-04T01:22:11;15.95;;;7.57;;
13244;SDS011;6689;53.400;12.486;2023-01-04T01:24:39;12.05;;;8.27;;
13244;SDS011;6689;53.400;12.486;2023-01-04T01:27:07;11.05;;;7.10;;
13244;SDS011;6689;53.400;12.486;2023-01-04T01:29:35;15.18;;;7.80;;
13244;SDS011;6689;53.400;12.486;2023-01-04T01:32:04;14.85;;;8.50;;
13244;SDS011;6689;53.400;12.486;2023-01-04T01:34:31;17.40;;;7.88;;
13244;SDS011;6689;53.400;12.486;2023-01-04T01:36:58;13.35;;;8.45;;
13244;SDS011;6689;53.400;12.486;2023-01-04T01:39:26;13.48;;;8.25;;
13244;SDS011;6689;53.400;12.486;2023-01-04T01:41:54;10.25;;;7.68;;
13244;SDS011;6689;53.400;12.486;2023-01-04T01:47:25;8.57;;;6.88;;
13244;SDS011;6689;53.400;12.486;2023-01-04T01:50:00;13.98;;;7.63;;
13244;SDS011;6689;53.400;12.486;2023-01-04T01:52:30;14.35;;;7.88;;
13244;SDS011;6689;53.400;12.486;2023-01-04T01:55:02;11.27;;;7.95;;
13244;SDS011;6689;53.400;12.486;2023-01-04T01:57:33;12.48;;;8.07;;
13244;SDS011;6689;53.400;12.486;2023-01-04T02:00:06;12.23;;;9.02;;
13244;SDS011;6689;53.400;12.486;2023-01-04T02:02:36;14.20;;;6.78;;
13244;SDS011;6689;53.400;12.486;2023-01-04T02:05:04;14.38;;;8.38;;
13244;SDS011;6689;53.400;12.486;2023-01-04T02:07:32;11.70;;;8.30;;
13244;SDS011;6689;53.400;12.486;2023-01-04T02:10:02;13.35;;;7.25;;
13244;SDS011;6689;53.400;12.486;2023-01-04T02:12:29;12.57;;;7.57;;
13244;SDS011;6689;53.400;12.486;2023-01-04T02:14:57;12.07;;;7.35;;
13244;SDS011;6689;53.400;12.486;2023-01-04T02:17:30;11.20;;;7.47;;
13244;SDS011;6689;53.400;12.486;2023-01-04T02:20:12;15.13;;;7.45;;
13244;SDS011;6689;53.400;12.486;2023-01-04T02:23:11;10.60;;;7.15;;
13244;SDS011;6689;53.400;12.486;2023-01-04T02:26:11;12.35;;;6.93;;
13244;SDS011;6689;53.400;12.486;2023-01-04T02:29:24;11.10;;;7.00;;
13244;SDS011;6689;53.400;12.486;2023-01-04T02:32:17;11.88;;;7.13;;
13244;SDS011;6689;53.400;12.486;2023-01-04T02:34:52;13.98;;;6.90;;
13244;SDS011;6689;53.400;12.486;2023-01-04T02:37:30;14.23;;;7.40;;
13244;SDS011;6689;53.400;12.486;2023-01-04T02:40:07;12.73;;;7.20;;
13244;SDS011;6689;53.400;12.486;2023-01-04T02:42:42;12.18;;;7.97;;
13244;SDS011;6689;53.400;12.486;2023-01-04T02:45:31;9.65;;;6.85;;
13244;SDS011;6689;53.400;12.486;2023-01-04T02:48:02;12.77;;;6.93;;
13244;SDS011;6689;53.400;12.486;2023-01-04T02:50:50;9.77;;;7.78;;
13244;SDS011;6689;53.400;12.486;2023-01-04T02:53:19;12.10;;;7.00;;
13244;SDS011;6689;53.400;12.486;2023-01-04T02:55:50;11.25;;;6.85;;
13244;SDS011;6689;53.400;12.486;2023-01-04T02:58:34;12.10;;;7.22;;
13244;SDS011;6689;53.400;12.486;2023-01-04T03:01:12;12.45;;;7.90;;
13244;SDS011;6689;53.400;12.486;2023-01-04T03:04:08;12.98;;;7.60;;
13244;SDS011;6689;53.400;12.486;2023-01-04T03:07:06;11.48;;;6.35;;
13244;SDS011;6689;53.400;12.486;2023-01-04T03:09:39;12.85;;;7.10;;
13244;SDS011;6689;53.400;12.486;2023-01-04T03:12:10;11.60;;;7.47;;
13244;SDS011;6689;53.400;12.486;2023-01-04T03:15:00;13.10;;;6.97;;
13244;SDS011;6689;53.400;12.486;2023-01-04T03:17:38;9.55;;;6.20;;
13244;SDS011;6689;53.400;12.486;2023-01-04T03:20:10;11.70;;;7.10;;
13244;SDS011;6689;53.400;12.486;2023-01-04T03:22:41;11.48;;;7.15;;
13244;SDS011;6689;53.400;12.486;2023-01-04T03:25:30;10.80;;;6.43;;
13244;SDS011;6689;53.400;12.486;2023-01-04T03:28:18;11.50;;;6.88;;
13244;SDS011;6689;53.400;12.486;2023-01-04T03:31:09;9.48;;;7.13;;
13244;SDS011;6689;53.400;12.486;2023-01-04T03:33:57;12.60;;;7.60;;
13244;SDS011;6689;53.400;12.486;2023-01-04T03:36:49;8.52;;;5.95;;
13244;SDS011;6689;53.400;12.486;2023-01-04T03:39:25;8.85;;;6.70;;
13244;SDS011;6689;53.400;12.486;2023-01-04T03:42:28;11.50;;;6.50;;
13244;SDS011;6689;53.400;12.486;2023-01-04T03:45:20;11.10;;;6.32;;
13244;SDS011;6689;53.400;12.486;2023-01-04T03:48:09;7.97;;;5.40;;
13244;SDS011;6689;53.400;12.486;2023-01-04T03:53:49;9.90;;;6.05;;
13244;SDS011;6689;53.400;12.486;2023-01-04T03:56:21;10.98;;;6.70;;
13244;SDS011;6689;53.400;12.486;2023-01-04T03:58:50;14.32;;;6.00;;
13244;SDS011;6689;53.400;12.486;2023-01-04T04:01:19;7.82;;;5.85;;
13244;SDS011;6689;53.400;12.486;2023-01-04T04:03:48;8.30;;;6.00;;
13244;SDS011;6689;53.400;12.486;2023-01-04T04:06:33;7.80;;;5.65;;
13244;SDS011;6689;53.400;12.486;2023-01-04T04:09:19;12.27;;;6.28;;
13244;SDS011;6689;53.400;12.486;2023-01-04T04:11:47;8.18;;;5.50;;
13244;SDS011;6689;53.400;12.486;2023-01-04T04:14:14;10.98;;;5.60;;
13244;SDS011;6689;53.400;12.486;2023-01-04T04:16:41;13.60;;;7.05;;
13244;SDS011;6689;53.400;12.486;2023-01-04T04:19:09;12.40;;;6.10;;
13244;SDS011;6689;53.400;12.486;2023-01-04T04:21:36;13.77;;;5.97;;
13244;SDS011;6689;53.400;12.486;2023-01-04T04:24:04;9.32;;;6.05;;
13244;SDS011;6689;53.400;12.486;2023-01-04T04:26:33;11.82;;;5.25;;
13244;SDS011;6689;53.400;12.486;2023-01-04T04:29:01;8.57;;;5.50;;
13244;SDS011;6689;53.400;12.486;2023-01-04T04:31:28;9.45;;;5.63;;
13244;SDS011;6689;53.400;12.486;2023-01-04T04:33:55;8.98;;;5.05;;
13244;SDS011;6689;53.400;12.486;2023-01-04T04:36:22;6.85;;;4.75;;
13244;SDS011;6689;53.400;12.486;2023-01-04T04:38:50;10.20;;;6.00;;
13244;SDS011;6689;53.400;12.486;2023-01-04T04:41:17;9.43;;;4.90;;
13244;SDS011;6689;53.400;12.486;2023-01-04T04:44:03;7.13;;;4.10;;
13244;SDS011;6689;53.400;12.486;2023-01-04T04:46:31;6.13;;;5.10;;
13244;SDS011;6689;53.400;12.486;2023-01-04T04:48:58;11.00;;;5.53;;
13244;SDS011;6689;53.400;12.486;2023-01-04T04:51:25;7.97;;;5.07;;
13244;SDS011;6689;53.400;12.486;2023-01-04T04:53:52;11.38;;;5.05;;
13244;SDS011;6689;53.400;12.486;2023-01-04T04:56:19;9.70;;;5.50;;
13244;SDS011;6689;53.400;12.486;2023-01-04T04:58:47;10.23;;;5.68;;
13244;SDS011;6689;53.400;12.486;2023-01-04T05:01:16;7.88;;;5.00;;
13244;SDS011;6689;53.400;12.486;2023-01-04T05:03:43;7.60;;;4.93;;
13244;SDS011;6689;53.400;12.486;2023-01-04T05:06:10;10.07;;;4.85;;
13244;SDS011;6689;53.400;12.486;2023-01-04T05:08:38;10.48;;;4.38;;
13244;SDS011;6689;53.400;12.486;2023-01-04T05:11:05;7.05;;;4.57;;
13244;SDS011;6689;53.400;12.486;2023-01-04T05:13:33;6.95;;;4.95;;
13244;SDS011;6689;53.400;12.486;2023-01-04T05:16:00;6.63;;;4.43;;
13244;SDS011;6689;53.400;12.486;2023-01-04T05:18:30;14.38;;;4.80;;
13244;SDS011;6689;53.400;12.486;2023-01-04T05:20:58;9.10;;;5.60;;
13244;SDS011;6689;53.400;12.486;2023-01-04T05:23:25;8.32;;;4.80;;
13244;SDS011;6689;53.400;12.486;2023-01-04T05:25:54;6.30;;;4.32;;
13244;SDS011;6689;53.400;12.486;2023-01-04T05:28:24;10.98;;;5.03;;
13244;SDS011;6689;53.400;12.486;2023-01-04T05:30:51;10.98;;;4.78;;
13244;SDS011;6689;53.400;12.486;2023-01-04T05:33:20;7.93;;;4.93;;
13244;SDS011;6689;53.400;12.486;2023-01-04T05:35:50;8.25;;;5.15;;
13244;SDS011;6689;53.400;12.486;2023-01-04T05:38:19;10.13;;;4.28;;
13244;SDS011;6689;53.400;12.486;2023-01-04T05:40:47;8.35;;;4.45;;
13244;SDS011;6689;53.400;12.486;2023-01-04T05:43:14;8.20;;;5.30;;
13244;SDS011;6689;53.400;12.486;2023-01-04T05:45:42;6.00;;;4.10;;
13244;SDS011;6689;53.400;12.486;2023-01-04T05:48:12;7.57;;;4.03;;
13244;SDS011;6689;53.400;12.486;2023-01-04T05:50:40;5.70;;;3.72;;
13244;SDS011;6689;53.400;12.486;2023-01-04T05:53:09;7.40;;;4.65;;
13244;SDS011;6689;53.400;12.486;2023-01-04T05:55:36;6.43;;;4.00;;
13244;SDS011;6689;53.400;12.486;2023-01-04T05:58:03;9.00;;;4.68;;
13244;SDS011;6689;53.400;12.486;2023-01-04T06:00:30;8.70;;;4.45;;
13244;SDS011;6689;53.400;12.486;2023-01-04T06:02:58;9.27;;;5.40;;
13244;SDS011;6689;53.400;12.486;2023-01-04T06:05:25;9.93;;;4.97;;
13244;SDS011;6689;53.400;12.486;2023-01-04T06:07:52;8.18;;;4.35;;
13244;SDS011;6689;53.400;12.486;2023-01-04T06:10:21;7.97;;;4.63;;
13244;SDS011;6689;53.400;12.486;2023-01-04T06:12:48;10.38;;;4.85;;
13244;SDS011;6689;53.400;12.486;2023-01-04T06:15:15;7.53;;;5.03;;
13244;SDS011;6689;53.400;12.486;2023-01-04T06:17:43;10.18;;;4.95;;
13244;SDS011;6689;53.400;12.486;2023-01-04T06:20:10;6.72;;;4.72;;
13244;SDS011;6689;53.400;12.486;2023-01-04T06:22:38;13.90;;;5.47;;
13244;SDS011;6689;53.400;12.486;2023-01-04T06:25:06;10.80;;;4.75;;
13244;SDS011;6689;53.400;12.486;2023-01-04T06:27:35;12.10;;;4.70;;
13244;SDS011;6689;53.400;12.486;2023-01-04T06:30:02;8.30;;;5.00;;
13244;SDS011;6689;53.400;12.486;2023-01-04T06:32:30;8.05;;;4.90;;
13244;SDS011;6689;53.400;12.486;2023-01-04T06:34:57;9.20;;;5.03;;
13244;SDS011;6689;53.400;12.486;2023-01-04T06:37:25;13.77;;;5.20;;
13244;SDS011;6689;53.400;12.486;2023-01-04T06:39:52;7.95;;;4.88;;
13244;SDS011;6689;53.400;12.486;2023-01-04T06:42:20;9.23;;;4.68;;
13244;SDS011;6689;53.400;12.486;2023-01-04T06:45:17;8.65;;;5.28;;
13244;SDS011;6689;53.400;12.486;2023-01-04T06:47:45;9.60;;;5.03;;
13244;SDS011;6689;53.400;12.486;2023-01-04T06:50:13;5.93;;;3.90;;
13244;SDS011;6689;53.400;12.486;2023-01-04T06:52:41;12.23;;;4.97;;
13244;SDS011;6689;53.400;12.486;2023-01-04T06:55:08;7.40;;;4.53;;
13244;SDS011;6689;53.400;12.486;2023-01-04T06:57:35;9.55;;;4.35;;
13244;SDS011;6689;53.400;12.486;2023-01-04T07:00:03;10.98;;;5.57;;
13244;SDS011;6689;53.400;12.486;2023-01-04T07:02:33;11.90;;;5.07;;
13244;SDS011;6689;53.400;12.486;2023-01-04T07:05:00;9.02;;;4.45;;
13244;SDS011;6689;53.400;12.486;2023-01-04T07:07:27;9.15;;;4.60;;
13244;SDS011;6689;53.400;12.486;2023-01-04T07:09:55;7.15;;;3.88;;
13244;SDS011;6689;53.400;12.486;2023-01-04T07:12:22;10.15;;;3.92;;
13244;SDS011;6689;53.400;12.486;2023-01-04T07:14:50;7.75;;;4.28;;
13244;SDS011;6689;53.400;12.486;2023-01-04T07:17:17;9.00;;;4.57;;
13244;SDS011;6689;53.400;12.486;2023-01-04T07:19:46;8.65;;;4.78;;
13244;SDS011;6689;53.400;12.486;2023-01-04T07:22:13;7.57;;;5.53;;
13244;SDS011;6689;53.400;12.486;2023-01-04T07:24:40;11.45;;;4.50;;
13244;SDS011;6689;53.400;12.486;2023-01-04T07:27:08;8.02;;;4.43;;
13244;SDS011;6689;53.400;12.486;2023-01-04T07:29:35;11.23;;;4.20;;
13244;SDS011;6689;53.400;12.486;2023-01-04T07:32:03;10.73;;;3.95;;
13244;SDS011;6689;53.400;12.486;2023-01-04T07:34:30;10.25;;;4.05;;
13244;SDS011;6689;53.400;12.486;2023-01-04T07:37:00;5.78;;;3.90;;
13244;SDS011;6689;53.400;12.486;2023-01-04T07:39:27;8.38;;;4.35;;
13244;SDS011;6689;53.400;12.486;2023-01-04T07:41:54;8.13;;;4.30;;
13244;SDS011;6689;53.400;12.486;2023-01-04T07:44:22;10.07;;;4.75;;
13244;SDS011;6689;53.400;12.486;2023-01-04T07:46:51;8.95;;;5.05;;
13244;SDS011;6689;53.400;12.486;2023-01-04T07:49:19;7.13;;;4.20;;
13244;SDS011;6689;53.400;12.486;2023-01-04T07:51:46;11.18;;;4.60;;
13244;SDS011;6689;53.400;12.486;2023-01-04T07:54:16;8.55;;;4.63;;
13244;SDS011;6689;53.400;12.486;2023-01-04T07:56:44;10.45;;;4.57;;
13244;SDS011;6689;53.400;12.486;2023-01-04T07:59:13;9.82;;;3.78;;
13244;SDS011;6689;53.400;12.486;2023-01-04T08:01:42;8.32;;;3.90;;
13244;SDS011;6689;53.400;12.486;2023-01-04T08:04:10;8.65;;;4.88;;
13244;SDS011;6689;53.400;12.486;2023-01-04T08:06:39;8.30;;;4.50;;
13244;SDS011;6689;53.400;12.486;2023-01-04T08:09:10;9.35;;;4.53;;
13244;SDS011;6689;53.400;12.486;2023-01-04T08:11:40;7.72;;;3.50;;
13244;SDS011;6689;53.400;12.486;2023-01-04T08:14:08;10.45;;;3.85;;
13244;SDS011;6689;53.400;12.486;2023-01-04T08:16:36;6.60;;;3.60;;
13244;SDS011;6689;53.400;12.486;2023-01-04T08:19:05;5.72;;;3.42;;
13244;SDS011;6689;53.400;12.486;2023-01-04T08:21:34;7.35;;;2.83;;
13244;SDS011;6689;53.400;12.486;2023-01-04T08:24:01;4.82;;;2.97;;
13244;SDS011;6689;53.400;12.486;2023-01-04T08:26:30;6.88;;;3.28;;
13244;SDS011;6689;53.400;12.486;2023-01-04T08:28:59;4.85;;;2.70;;
13244;SDS011;6689;53.400;12.486;2023-01-04T08:31:27;5.25;;;2.78;;
13244;SDS011;6689;53.400;12.486;2023-01-04T08:33:56;4.35;;;2.33;;
13244;SDS011;6689;53.400;12.486;2023-01-04T08:36:24;4.95;;;2.72;;
13244;SDS011;6689;53.400;12.486;2023-01-04T08:38:54;5.60;;;2.83;;
13244;SDS011;6689;53.400;12.486;2023-01-04T08:41:22;6.15;;;2.45;;
13244;SDS011;6689;53.400;12.486;2023-01-04T08:43:50;5.18;;;2.53;;
13244;SDS011;6689;53.400;12.486;2023-01-04T08:46:20;5.47;;;2.92;;
13244;SDS011;6689;53.400;12.486;2023-01-04T08:48:47;5.93;;;2.70;;
13244;SDS011;6689;53.400;12.486;2023-01-04T08:51:16;4.18;;;2.25;;
13244;SDS011;6689;53.400;12.486;2023-01-04T08:53:44;4.82;;;2.50;;
13244;SDS011;6689;53.400;12.486;2023-01-04T08:56:11;4.28;;;2.75;;
13244;SDS011;6689;53.400;12.486;2023-01-04T08:58:38;8.60;;;2.55;;
13244;SDS011;6689;53.400;12.486;2023-01-04T09:01:06;3.30;;;2.10;;
13244;SDS011;6689;53.400;12.486;2023-01-04T09:03:36;3.53;;;2.60;;
13244;SDS011;6689;53.400;12.486;2023-01-04T09:06:04;5.50;;;2.30;;
13244;SDS011;6689;53.400;12.486;2023-01-04T09:08:38;4.75;;;2.00;;
13244;SDS011;6689;53.400;12.486;2023-01-04T09:11:09;6.75;;;2.50;;
13244;SDS011;6689;53.400;12.486;2023-01-04T09:13:38;7.68;;;2.40;;
13244;SDS011;6689;53.400;12.486;2023-01-04T09:16:07;4.28;;;1.98;;
13244;SDS011;6689;53.400;12.486;2023-01-04T09:18:40;6.65;;;2.03;;
13244;SDS011;6689;53.400;12.486;2023-01-04T09:21:08;6.88;;;2.65;;
13244;SDS011;6689;53.400;12.486;2023-01-04T09:23:38;3.45;;;2.35;;
13244;SDS011;6689;53.400;12.486;2023-01-04T09:26:06;3.58;;;2.30;;
13244;SDS011;6689;53.400;12.486;2023-01-04T09:28:34;5.03;;;2.28;;
13244;SDS011;6689;53.400;12.486;2023-01-04T09:31:06;3.47;;;2.10;;
13244;SDS011;6689;53.400;12.486;2023-01-04T09:33:35;3.38;;;2.33;;
13244;SDS011;6689;53.400;12.486;2023-01-04T09:36:05;5.10;;;2.08;;
13244;SDS011;6689;53.400;12.486;2023-01-04T09:38:36;3.42;;;2.00;;
13244;SDS011;6689;53.400;12.486;2023-01-04T09:41:07;7.05;;;2.83;;
13244;SDS011;6689;53.400;12.486;2023-01-04T09:43:44;4.32;;;1.73;;
13244;SDS011;6689;53.400;12.486;2023-01-04T09:46:16;3.30;;;2.00;;
13244;SDS011;6689;53.400;12.486;2023-01-04T09:48:49;4.45;;;2.67;;
13244;SDS011;6689;53.400;12.486;2023-01-04T09:51:23;4.97;;;2.38;;
13244;SDS011;6689;53.400;12.486;2023-01-04T09:53:56;2.35;;;1.83;;
13244;SDS011;6689;53.400;12.486;2023-01-04T09:56:28;3.95;;;1.88;;
13244;SDS011;6689;53.400;12.486;2023-01-04T09:58:59;3.85;;;2.00;;
13244;SDS011;6689;53.400;12.486;2023-01-04T10:01:34;3.20;;;2.20;;
13244;SDS011;6689;53.400;12.486;2023-01-04T10:04:12;2.75;;;2.00;;
13244;SDS011;6689;53.400;12.486;2023-01-04T10:06:46;3.90;;;2.28;;
13244;SDS011;6689;53.400;12.486;2023-01-04T10:09:14;3.05;;;1.95;;
13244;SDS011;6689;53.400;12.486;2023-01-04T10:11:46;2.13;;;1.77;;
13244;SDS011;6689;53.400;12.486;2023-01-04T10:14:34;3.25;;;2.65;;
13244;SDS011;6689;53.400;12.486;2023-01-04T10:17:13;4.47;;;2.50;;
13244;SDS011;6689;53.400;12.486;2023-01-04T10:20:00;3.25;;;2.08;;
13244;SDS011;6689;53.400;12.486;2023-01-04T10:22:43;4.63;;;2.50;;
13244;SDS011;6689;53.400;12.486;2023-01-04T10:25:18;4.30;;;2.75;;
13244;SDS011;6689;53.400;12.486;2023-01-04T10:27:52;7.18;;;3.03;;
13244;SDS011;6689;53.400;12.486;2023-01-04T10:30:35;5.15;;;3.00;;
13244;SDS011;6689;53.400;12.486;2023-01-04T10:33:10;5.75;;;2.80;;
13244;SDS011;6689;53.400;12.486;2023-01-04T10:35:40;4.20;;;2.35;;
13244;SDS011;6689;53.400;12.486;2023-01-04T10:38:13;5.72;;;2.70;;
13244;SDS011;6689;53.400;12.486;2023-01-04T10:40:43;4.38;;;3.20;;
13244;SDS011;6689;53.400;12.486;2023-01-04T10:43:14;4.95;;;3.38;;
13244;SDS011;6689;53.400;12.486;2023-01-04T10:45:52;5.97;;;3.00;;
13244;SDS011;6689;53.400;12.486;2023-01-04T10:48:26;3.60;;;2.42;;
13244;SDS011;6689;53.400;12.486;2023-01-04T10:51:03;4.28;;;2.33;;
13244;SDS011;6689;53.400;12.486;2023-01-04T10:53:35;4.35;;;2.83;;
13244;SDS011;6689;53.400;12.486;2023-01-04T10:56:09;4.32;;;2.90;;
13244;SDS011;6689;53.400;12.486;2023-01-04T10:58:45;3.65;;;2.42;;
13244;SDS011;6689;53.400;12.486;2023-01-04T11:01:18;4.65;;;2.83;;
13244;SDS011;6689;53.400;12.486;2023-01-04T11:03:50;4.18;;;2.42;;
13244;SDS011;6689;53.400;12.486;2023-01-04T11:06:22;3.33;;;2.55;;
13244;SDS011;6689;53.400;12.486;2023-01-04T11:08:55;4.05;;;2.33;;
13244;SDS011;6689;53.400;12.486;2023-01-04T11:11:26;5.35;;;2.40;;
13244;SDS011;6689;53.400;12.486;2023-01-04T11:13:57;4.53;;;2.50;;
13244;SDS011;6689;53.400;12.486;2023-01-04T11:16:25;2.67;;;2.15;;
13244;SDS011;6689;53.400;12.486;2023-01-04T11:18:54;3.38;;;2.50;;
13244;SDS011;6689;53.400;12.486;2023-01-04T11:21:24;3.75;;;2.72;;
13244;SDS011;6689;53.400;12.486;2023-01-04T11:23:59;4.78;;;3.17;;
13244;SDS011;6689;53.400;12.486;2023-01-04T11:26:30;3.07;;;2.23;;
13244;SDS011;6689;53.400;12.486;2023-01-04T11:29:03;4.35;;;3.20;;
13244;SDS011;6689;53.400;12.486;2023-01-04T11:31:35;4.15;;;3.08;;
13244;SDS011;6689;53.400;12.486;2023-01-04T11:34:10;4.65;;;3.03;;
13244;SDS011;6689;53.400;12.486;2023-01-04T11:36:38;4.65;;;2.95;;
13244;SDS011;6689;53.400;12.486;2023-01-04T11:39:17;4.70;;;3.08;;
13244;SDS011;6689;53.400;12.486;2023-01-04T11:41:54;5.78;;;2.75;;
13244;SDS011;6689;53.400;12.486;2023-01-04T11:44:23;4.47;;;3.17;;
13244;SDS011;6689;53.400;12.486;2023-01-04T11:47:04;5.43;;;3.13;;
13244;SDS011;6689;53.400;12.486;2023-01-04T11:49:33;5.45;;;2.90;;
13244;SDS011;6689;53.400;12.486;2023-01-04T11:52:01;4.18;;;2.70;;
13244;SDS011;6689;53.400;12.486;2023-01-04T11:54:30;4.43;;;2.85;;
13244;SDS011;6689;53.400;12.486;2023-01-04T11:56:59;4.30;;;2.60;;
13244;SDS011;6689;53.400;12.486;2023-01-04T11:59:27;2.72;;;2.20;;
13244;SDS011;6689;53.400;12.486;2023-01-04T12:04:52;3.42;;;2.35;;
13244;SDS011;6689;53.400;12.486;2023-01-04T12:07:29;3.03;;;2.03;;
13244;SDS011;6689;53.400;12.486;2023-01-04T12:09:59;3.10;;;2.05;;
13244;SDS011;6689;53.400;12.486;2023-01-04T12:12:46;3.17;;;2.53;;
13244;SDS011;6689;53.400;12.486;2023-01-04T12:15:15;3.25;;;2.35;;
13244;SDS011;6689;53.400;12.486;2023-01-04T12:17:47;4.13;;;2.42;;
13244;SDS011;6689;53.400;12.486;2023-01-04T12:20:21;3.55;;;2.28;;
13244;SDS011;6689;53.400;12.486;2023-01-04T12:22:53;4.90;;;2.13;;
13244;SDS011;6689;53.400;12.486;2023-01-04T12:25:24;3.35;;;1.90;;
13244;SDS011;6689;53.400;12.486;2023-01-04T12:27:56;3.33;;;1.92;;
13244;SDS011;6689;53.400;12.486;2023-01-04T12:30:36;3.97;;;1.70;;
13244;SDS011;6689;53.400;12.486;2023-01-04T12:36:05;3.67;;;1.60;;
13244;SDS011;6689;53.400;12.486;2023-01-04T12:45:00;4.40;;;1.90;;
13244;SDS011;6689;53.400;12.486;2023-01-04T12:47:43;3.30;;;2.03;;
13244;SDS011;6689;53.400;12.486;2023-01-04T12:50:29;6.65;;;1.85;;
13244;SDS011;6689;53.400;12.486;2023-01-04T12:52:57;2.65;;;1.83;;
13244;SDS011;6689;53.400;12.486;2023-01-04T13:01:17;3.30;;;2.00;;
13244;SDS011;6689;53.400;12.486;2023-01-04T13:03:49;2.00;;;1.42;;
13244;SDS011;6689;53.400;12.486;2023-01-04T13:06:21;1.58;;;1.20;;
13244;SDS011;6689;53.400;12.486;2023-01-04T13:08:51;1.80;;;1.35;;
13244;SDS011;6689;53.400;12.486;2023-01-04T13:11:44;2.28;;;1.85;;
13244;SDS011;6689;53.400;12.486;2023-01-04T13:14:35;1.70;;;1.40;;
13244;SDS011;6689;53.400;12.486;2023-01-04T13:17:17;3.10;;;1.60;;
13244;SDS011;6689;53.400;12.486;2023-01-04T13:19:47;2.20;;;1.52;;
13244;SDS011;6689;53.400;12.486;2023-01-04T13:22:16;2.42;;;1.52;;
13244;SDS011;6689;53.400;12.486;2023-01-04T13:24:46;2.00;;;1.17;;
13244;SDS011;6689;53.400;12.486;2023-01-04T13:27:17;1.92;;;1.50;;
13244;SDS011;6689;53.400;12.486;2023-01-04T13:29:45;3.10;;;1.30;;
13244;SDS011;6689;53.400;12.486;2023-01-04T13:32:17;2.17;;;1.65;;
13244;SDS011;6689;53.400;12.486;2023-01-04T13:34:50;1.98;;;1.40;;
13244;SDS011;6689;53.400;12.486;2023-01-04T13:37:29;2.00;;;1.23;;
13244;SDS011;6689;53.400;12.486;2023-01-04T13:42:54;3.72;;;1.60;;
13244;SDS011;6689;53.400;12.486;2023-01-04T13:48:16;1.90;;;1.23;;
13244;SDS011;6689;53.400;12.486;2023-01-04T13:50:56;1.77;;;1.30;;
13244;SDS011;6689;53.400;12.486;2023-01-04T13:53:26;2.33;;;1.45;;
13244;SDS011;6689;53.400;12.486;2023-01-04T13:55:56;3.30;;;1.50;;
13244;SDS011;6689;53.400;12.486;2023-01-04T13:58:25;2.63;;;1.42;;
13244;SDS011;6689;53.400;12.486;2023-01-04T14:00:55;1.60;;;1.27;;
13244;SDS011;6689;53.400;12.486;2023-01-04T14:03:30;2.17;;;1.50;;
13244;SDS011;6689;53.400;12.486;2023-01-04T14:06:12;1.92;;;1.42;;
13244;SDS011;6689;53.400;12.486;2023-01-04T14:08:45;1.63;;;1.17;;
13244;SDS011;6689;53.400;12.486;2023-01-04T14:11:18;1.63;;;1.30;;
13244;SDS011;6689;53.400;12.486;2023-01-04T14:14:18;2.28;;;1.30;;
13244;SDS011;6689;53.400;12.486;2023-01-04T14:16:49;2.35;;;1.50;;
13244;SDS011;6689;53.400;12.486;2023-01-04T14:19:32;2.63;;;1.70;;
13244;SDS011;6689;53.400;12.486;2023-01-04T14:34:10;1.88;;;1.23;;
13244;SDS011;6689;53.400;12.486;2023-01-04T14:36:43;2.45;;;1.60;;
13244;SDS011;6689;53.400;12.486;2023-01-04T14:39:17;4.07;;;1.75;;
13244;SDS011;6689;53.400;12.486;2023-01-04T14:41:53;2.35;;;1.52;;
13244;SDS011;6689;53.400;12.486;2023-01-04T14:44:24;2.30;;;1.67;;
13244;SDS011;6689;53.400;12.486;2023-01-04T14:46:55;2.55;;;1.40;;
13244;SDS011;6689;53.400;12.486;2023-01-04T14:49:23;2.28;;;1.90;;
13244;SDS011;6689;53.400;12.486;2023-01-04T14:51:54;2.47;;;1.80;;
13244;SDS011;6689;53.400;12.486;2023-01-04T14:54:25;3.28;;;1.60;;
13244;SDS011;6689;53.400;12.486;2023-01-04T14:56:54;2.22;;;1.52;;
13244;SDS011;6689;53.400;12.486;2023-01-04T14:59:22;2.17;;;1.73;;
13244;SDS011;6689;53.400;12.486;2023-01-04T15:01:50;3.00;;;1.90;;
13244;SDS011;6689;53.400;12.486;2023-01-04T15:04:18;2.20;;;1.77;;
13244;SDS011;6689;53.400;12.486;2023-01-04T15:06:47;3.58;;;1.90;;
13244;SDS011;6689;53.400;12.486;2023-01-04T15:09:18;2.83;;;1.60;;
13244;SDS011;6689;53.400;12.486;2023-01-04T15:11:46;3.20;;;1.77;;
13244;SDS011;6689;53.400;12.486;2023-01-04T15:14:13;2.10;;;1.60;;
13244;SDS011;6689;53.400;12.486;2023-01-04T15:16:40;3.17;;;2.08;;
13244;SDS011;6689;53.400;12.486;2023-01-04T15:19:08;2.20;;;1.58;;
13244;SDS011;6689;53.400;12.486;2023-01-04T15:21:35;2.13;;;1.67;;
13244;SDS011;6689;53.400;12.486;2023-01-04T15:24:02;2.10;;;1.80;;
13244;SDS011;6689;53.400;12.486;2023-01-04T15:26:32;1.92;;;1.17;;
13244;SDS011;6689;53.400;12.486;2023-01-04T15:28:59;1.58;;;1.20;;
13244;SDS011;6689;53.400;12.486;2023-01-04T15:31:27;1.30;;;0.90;;
13244;SDS011;6689;53.400;12.486;2023-01-04T15:33:54;1.33;;;1.02;;
13244;SDS011;6689;53.400;12.486;2023-01-04T15:36:22;0.90;;;0.80;;
13244;SDS011;6689;53.400;12.486;2023-01-04T15:38:52;1.60;;;0.75;;
13244;SDS011;6689;53.400;12.486;2023-01-04T15:41:20;0.80;;;0.50;;
13244;SDS011;6689;53.400;12.486;2023-01-04T15:44:09;1.43;;;0.50;;
13244;SDS011;6689;53.400;12.486;2023-01-04T15:46:37;0.90;;;0.60;;
13244;SDS011;6689;53.400;12.486;2023-01-04T15:49:04;0.40;;;0.40;;
13244;SDS011;6689;53.400;12.486;2023-01-04T15:51:32;2.47;;;0.98;;